createdAt,value
2022-10-22T00:00:04.414Z,0
2022-10-22T00:05:01.662Z,0
2022-10-22T00:10:00.542Z,0
2022-10-22T00:15:01.024Z,0
2022-10-22T00:19:59.774Z,0
2022-10-22T00:24:59.386Z,0
2022-10-22T00:29:58.580Z,0
2022-10-22T00:34:58.827Z,0
2022-10-22T00:39:57.608Z,0
2022-10-22T00:44:58.710Z,0
2022-10-22T00:49:56.104Z,0
2022-10-22T00:54:56.077Z,0
2022-10-22T00:59:29.136Z,0
2022-10-22T01:04:16.824Z,0
2022-10-22T01:09:16.697Z,0
2022-10-22T01:14:17.614Z,0
2022-10-22T01:19:15.699Z,0
2022-10-22T01:24:15.105Z,0
2022-10-22T01:29:14.005Z,0
2022-10-22T01:34:14.330Z,0
2022-10-22T01:39:13.374Z,0
2022-10-22T01:44:14.669Z,0
2022-10-22T01:49:11.328Z,0
2022-10-22T01:54:11.943Z,0
2022-10-22T01:58:57.265Z,0
2022-10-22T02:03:56.829Z,0
2022-10-22T02:08:55.941Z,0
2022-10-22T02:13:55.340Z,0
2022-10-22T02:18:55.222Z,0
2022-10-22T02:23:54.335Z,0
2022-10-22T02:28:53.651Z,0
2022-10-22T02:33:53.223Z,0
2022-10-22T02:38:52.922Z,0
2022-10-22T02:43:52.806Z,0
2022-10-22T02:48:50.941Z,0
2022-10-22T02:53:50.158Z,0
2022-10-22T02:58:50.165Z,0
2022-10-22T03:03:49.881Z,0
2022-10-22T03:08:48.920Z,0
2022-10-22T03:13:47.908Z,0
2022-10-22T03:18:48.520Z,0
2022-10-22T03:23:48.253Z,0
2022-10-22T03:28:48.172Z,0
2022-10-22T03:33:45.178Z,0
2022-10-22T03:38:44.916Z,0
2022-10-22T03:43:43.659Z,0
2022-10-22T03:48:43.618Z,0
2022-10-22T03:53:41.997Z,0
2022-10-22T03:58:41.624Z,0
2022-10-22T04:03:41.589Z,0
2022-10-22T04:08:41.736Z,0
2022-10-22T04:13:40.117Z,0
2022-10-22T04:18:40.582Z,0
2022-10-22T04:23:39.413Z,0
2022-10-22T04:28:39.149Z,0
2022-10-22T04:33:37.508Z,0
2022-10-22T04:38:37.282Z,0
2022-10-22T04:43:37.799Z,0
2022-10-22T04:48:36.957Z,0
2022-10-22T04:53:35.620Z,0
2022-10-22T04:58:35.461Z,0
2022-10-22T04:59:56.542Z,0
2022-10-22T05:04:56.470Z,0
2022-10-22T05:09:56.845Z,0
2022-10-22T05:14:53.697Z,0
2022-10-22T05:19:53.896Z,0
2022-10-22T05:24:53.103Z,0
2022-10-22T05:29:52.229Z,0
2022-10-22T05:34:50.167Z,0
2022-10-22T05:40:30.281Z,0
2022-10-22T05:44:50.416Z,0
2022-10-22T05:49:49.574Z,0
2022-10-22T05:54:47.579Z,0
2022-10-22T05:59:15.742Z,0
2022-10-22T06:04:15.038Z,0
2022-10-22T06:09:14.459Z,0
2022-10-22T06:14:13.433Z,0
2022-10-22T06:19:12.606Z,0
2022-10-22T06:24:13.331Z,0
2022-10-22T06:29:12.114Z,0.01
2022-10-22T06:34:32.366Z,0.01
2022-10-22T06:39:11.036Z,0.02
2022-10-22T06:44:11.217Z,0.02
2022-10-22T06:49:09.900Z,0.03
2022-10-22T06:54:11.162Z,0.03
2022-10-22T06:58:54.993Z,0.04
2022-10-22T07:03:55.105Z,0.04
2022-10-22T07:08:55.012Z,0.05
2022-10-22T07:13:54.456Z,0.06
2022-10-22T07:18:52.419Z,0.07
2022-10-22T07:23:53.345Z,0.07
2022-10-22T07:28:52.346Z,0.08
2022-10-22T07:33:53.444Z,0.08
2022-10-22T07:38:50.835Z,0.09
2022-10-22T07:43:51.506Z,0.11
2022-10-22T07:48:49.950Z,0.12
2022-10-22T07:53:50.510Z,0.11
2022-10-22T07:58:48.674Z,0.11
2022-10-22T08:00:15.150Z,0.11
2022-10-22T08:05:09.713Z,0.12
2022-10-22T08:10:08.400Z,0.12
2022-10-22T08:15:07.574Z,0.12
2022-10-22T08:20:07.256Z,0.13
2022-10-22T08:25:07.200Z,0.13
2022-10-22T08:30:07.242Z,0.13
2022-10-22T08:35:07.047Z,0.14
2022-10-22T08:40:04.511Z,0.14
2022-10-22T08:45:04.594Z,0.15
2022-10-22T08:50:03.604Z,0.15
2022-10-22T08:55:03.354Z,0.15
2022-10-22T08:59:33.884Z,0.16
2022-10-22T09:04:34.682Z,0.17
2022-10-22T09:09:35.801Z,0.17
2022-10-22T09:14:32.704Z,0.17
2022-10-22T09:19:33.898Z,0.17
2022-10-22T09:24:35.812Z,0.18
2022-10-22T09:29:31.315Z,0.19
2022-10-22T09:34:30.662Z,0.19
2022-10-22T09:39:31.037Z,0.2
2022-10-22T09:44:30.236Z,0.2
2022-10-22T09:49:30.780Z,0.24
2022-10-22T09:54:30.148Z,0.2
2022-10-22T09:59:04.528Z,0.21
2022-10-22T10:04:10.204Z,0.21
2022-10-22T10:09:02.356Z,0.21
2022-10-22T10:14:00.888Z,0.29
2022-10-22T10:19:00.327Z,0.36
2022-10-22T10:23:59.086Z,0.38
2022-10-22T10:28:58.399Z,0.39
2022-10-22T10:33:58.709Z,0.4
2022-10-22T10:38:58.533Z,0.41
2022-10-22T10:43:58.667Z,0.34
2022-10-22T10:48:59.002Z,0.3
2022-10-22T10:53:58.017Z,0.43
2022-10-22T10:58:57.749Z,0.42
2022-10-22T11:03:56.077Z,0.41
2022-10-22T11:08:57.358Z,0.41
2022-10-22T11:13:57.484Z,0.42
2022-10-22T11:18:56.693Z,0.41
2022-10-22T11:23:55.807Z,0.41
2022-10-22T11:28:55.178Z,0.41
2022-10-22T11:34:35.477Z,0.41
2022-10-22T11:38:54.408Z,0.41
2022-10-22T11:43:55.685Z,0.4
2022-10-22T11:48:53.234Z,0.4
2022-10-22T11:53:53.497Z,0.4
2022-10-22T11:58:57.022Z,0.39
2022-10-22T12:03:51.703Z,0.39
2022-10-22T12:08:50.173Z,0.38
2022-10-22T12:13:49.503Z,0.38
2022-10-22T12:18:49.468Z,0.37
2022-10-22T12:23:48.364Z,0.36
2022-10-22T12:28:45.904Z,0.36
2022-10-22T12:33:46.083Z,0.35
2022-10-22T12:38:45.008Z,0.34
2022-10-22T12:43:44.959Z,0.33
2022-10-22T12:48:43.581Z,0.33
2022-10-22T12:53:43.612Z,0.32
2022-10-22T12:58:43.232Z,0.31
2022-10-22T13:00:21.398Z,0.31
2022-10-22T13:05:03.970Z,0.3
2022-10-22T13:10:03.632Z,0.29
2022-10-22T13:15:03.618Z,0.28
2022-10-22T13:20:02.451Z,0.27
2022-10-22T13:25:03.231Z,0.26
2022-10-22T13:30:00.168Z,0.25
2022-10-22T13:34:59.928Z,0.24
2022-10-22T13:40:00.011Z,0.23
2022-10-22T13:44:59.048Z,0.22
2022-10-22T13:49:59.285Z,0.21
2022-10-22T13:54:58.023Z,0.2
2022-10-22T13:59:31.114Z,0.19
2022-10-22T14:04:17.540Z,0.18
2022-10-22T14:09:17.574Z,0.17
2022-10-22T14:14:16.466Z,0.16
2022-10-22T14:19:15.387Z,0.15
2022-10-22T14:24:16.073Z,0.14
2022-10-22T14:29:14.103Z,0.13
2022-10-22T14:34:13.430Z,0.12
2022-10-22T14:39:12.351Z,0.11
2022-10-22T14:44:11.857Z,0.1
2022-10-22T14:49:10.464Z,0.08
2022-10-22T14:54:10.274Z,0.07
2022-10-22T14:58:55.890Z,0.07
2022-10-22T15:03:57.108Z,0.06
2022-10-22T15:08:55.027Z,0.05
2022-10-22T15:13:54.881Z,0.05
2022-10-22T15:18:53.412Z,0.04
2022-10-22T15:23:52.020Z,0.04
2022-10-22T15:28:49.894Z,0.03
2022-10-22T15:33:49.607Z,0.03
2022-10-22T15:38:49.088Z,0.02
2022-10-22T15:43:49.519Z,0.02
2022-10-22T15:48:46.363Z,0.02
2022-10-22T15:53:46.252Z,0.01
2022-10-22T15:58:45.041Z,0.01
2022-10-22T16:00:07.262Z,0.01
2022-10-22T16:05:05.331Z,0
2022-10-22T16:10:04.785Z,0
2022-10-22T16:15:04.850Z,0
2022-10-22T16:20:04.905Z,0
2022-10-22T16:25:03.537Z,0
2022-10-22T16:30:04.019Z,0
2022-10-22T16:35:02.763Z,0
2022-10-22T16:40:09.839Z,0
2022-10-22T16:45:02.149Z,0
2022-10-22T16:49:59.686Z,0
2022-10-22T16:54:58.822Z,0
2022-10-22T16:59:29.291Z,0
2022-10-22T17:04:30.741Z,0
2022-10-22T17:09:17.072Z,0
2022-10-22T17:14:16.392Z,0
2022-10-22T17:19:15.530Z,0
2022-10-22T17:24:14.475Z,0
2022-10-22T17:29:13.627Z,0
2022-10-22T17:34:14.133Z,0
2022-10-22T17:39:13.490Z,0
2022-10-22T17:44:12.636Z,0
2022-10-22T17:49:11.831Z,0
2022-10-22T17:54:13.224Z,0
2022-10-22T17:59:02.210Z,0
2022-10-22T18:04:03.054Z,0
2022-10-22T18:08:59.803Z,0
2022-10-22T18:13:59.917Z,0
2022-10-22T18:18:59.621Z,0
2022-10-22T18:23:59.224Z,0
2022-10-22T18:28:57.606Z,0
2022-10-22T18:33:57.605Z,0
2022-10-22T18:38:56.784Z,0
2022-10-22T18:43:56.480Z,0
2022-10-22T18:49:01.641Z,0
2022-10-22T18:54:25.671Z,0
2022-10-22T18:58:55.810Z,0
2022-10-22T19:03:55.646Z,0
2022-10-22T19:08:55.876Z,0
2022-10-22T19:13:55.712Z,0
2022-10-22T19:18:54.258Z,0
2022-10-22T19:23:53.863Z,0
2022-10-22T19:28:52.938Z,0
2022-10-22T19:33:52.799Z,0
2022-10-22T19:38:50.978Z,0
2022-10-22T19:43:51.002Z,0
2022-10-22T19:48:50.533Z,0
2022-10-22T19:53:50.146Z,0
2022-10-22T19:58:50.625Z,0
2022-10-22T20:03:47.498Z,0
2022-10-22T20:08:53.701Z,0
2022-10-22T20:13:54.486Z,0
2022-10-22T20:18:45.939Z,0
2022-10-22T20:23:44.478Z,0
2022-10-22T20:28:44.444Z,0
2022-10-22T20:33:44.284Z,0
2022-10-22T20:38:44.869Z,0
2022-10-22T20:43:42.216Z,0
2022-10-22T20:48:42.219Z,0
2022-10-22T20:53:41.367Z,0
2022-10-22T20:58:40.315Z,0
2022-10-22T21:00:02.346Z,0
2022-10-22T21:05:02.105Z,0
2022-10-22T21:10:01.474Z,0
2022-10-22T21:15:01.243Z,0
2022-10-22T21:20:01.039Z,0
2022-10-22T21:25:00.031Z,0
2022-10-22T21:29:59.474Z,0
2022-10-22T21:34:59.163Z,0
2022-10-22T21:39:59.918Z,0
2022-10-22T21:44:57.377Z,0
2022-10-22T21:49:57.015Z,0
2022-10-22T21:54:56.470Z,0
2022-10-22T21:59:16.707Z,0
2022-10-22T22:04:15.254Z,0
2022-10-22T22:09:15.504Z,0
2022-10-22T22:14:14.749Z,0
2022-10-22T22:19:15.739Z,0
2022-10-22T22:24:12.973Z,0
2022-10-22T22:29:13.019Z,0
2022-10-22T22:34:12.143Z,0
2022-10-22T22:39:11.542Z,0
2022-10-22T22:44:09.712Z,0
2022-10-22T22:49:09.422Z,0
2022-10-22T22:54:09.649Z,0
2022-10-22T22:59:02.059Z,0
2022-10-22T23:04:02.423Z,0
2022-10-22T23:09:02.015Z,0
2022-10-22T23:14:00.502Z,0
2022-10-22T23:18:59.464Z,0
2022-10-22T23:24:00.580Z,0
2022-10-22T23:28:57.908Z,0
2022-10-22T23:33:57.527Z,0
2022-10-22T23:38:56.244Z,0
2022-10-22T23:43:56.634Z,0
2022-10-22T23:48:54.019Z,0
2022-10-22T23:53:54.653Z,0
2022-10-22T23:58:53.192Z,0
